KESN

Easton / Newnam Field Airport

Easton, Maryland, USA
METAR KESN 230936Z AUTO 00000KT 4SM BR CLR 20/19 A2996 RMK AO2 T01970188
Observed Flight Rules
May-23 @ 09:36 UTC (2 hours ago) Marginal Visual Flight Rules
Visibility Clouds Conditions
4 miles
  • Clear skies
  • Mist
Temperatures Readings
Current 20°C / 68°F
Dewpoint 19°C / 66°F
Humidity 94%
Altimeter 29.96" Hg
Pressure 1015 hPa
Elevation 22
METAR KESN 230936Z AUTO 00000KT 4SM BR CLR 20/19 A2996 RMK AO2 T01970188
Observed Flight Rules
May-23 @ 09:36 UTC
(2 hours ago)
MVFR
Clouds
  • Clear skies
Conditions
  • Mist
Temperature Dewpoint
20°C / 68°F 19°C / 66°F
Humidity Altimeter Pressure
94% 29.96" Hg 1015 hPa